Thunder radar more information blitzortung!


Radar de pluja more information rain snow radar


Visita la nostra xarxa de llocs de meteo:

Template documentation
and downloads

And another site



No particular awareness of the weather is required.    There are no Weather-warnings

Pagina Historial Weather Underground text

Diari Resum Octubre 30, 2017 Unitats:  Imperial    Mètric   Tant
« Previous Dia
SegĂźent Dia »
Diari Setmana Mensual Anual Personalitzada
  Maxima: Minima: Media:
Temperatura: TemperatureC °F 9.6 °F 15.4 °F
Punt de rosada: DewpointC °F 4.3 °F 9.1 °F
Humitat: Humidity % 55 % 66 %
Wind Speed: WindSpeedKMH mph 0.0 mph 4.7 mph
RĂ fegues de vent: WindSpeedGustKMH mph - -
Vent:- - East
Pression baro: PressurehPa in 1015.8 in -
Precipitacions: 0.0 in    
Historical Graphs
 
 
Dades de taula per Octubre 30, 2017
Temps Temperatura Punt de rosada Pression baro Vent Wind Speed RĂ fegues de vent Humitat Rainfall Rate (Hourly)
TemperatureC °F DewpointC °F PressurehPa in Calm     Humidity % HourlyPrecipMM in
00:01 13.1 °F 4.5 °F 1016.8 in Calm     56 % 0.0 in
00:06 13.1 °F 4.3 °F 1016.8 in WNW 1.9 mph 1.9 mph 55 % 0.0 in
01:35 9.6 °F 5.0 °F 1017.8 in Calm   1.6 mph 73 % 0.0 in
01:45 10.0 °F 5.4 °F 1017.8 in NW 1.6 mph 1.6 mph 73 % 0.0 in
01:55 10.5 °F 5.9 °F 1016.8 in North 1.6 mph 6.4 mph 73 % 0.0 in
02:05 11.0 °F 6.3 °F 1016.8 in NE 1.6 mph 3.2 mph 73 % 0.0 in
02:15 11.2 °F 6.3 °F 1017.8 in NE 4.8 mph 6.4 mph 72 % 0.0 in
02:25 11.6 °F 6.7 °F 1017.8 in NE 3.2 mph 4.8 mph 72 % 0.0 in
02:35 12.0 °F 6.9 °F 1017.8 in NE 4.8 mph 6.4 mph 71 % 0.0 in
02:45 12.2 °F 7.1 °F 1017.8 in NE 8.0 mph 9.7 mph 71 % 0.0 in
02:55 12.7 °F 7.4 °F 1017.8 in NNE 8.0 mph 9.7 mph 70 % 0.0 in
03:05 12.8 °F 7.4 °F 1017.8 in NE 4.8 mph 9.7 mph 70 % 0.0 in
03:15 13.1 °F 7.6 °F 1017.8 in NE 4.8 mph 9.7 mph 69 % 0.0 in
03:25 13.3 °F 7.7 °F 1017.8 in NNE 4.8 mph 9.7 mph 69 % 0.0 in
03:35 13.6 °F 7.8 °F 1017.8 in NNE 8.0 mph 8.0 mph 68 % 0.0 in
09:45 13.9 °F 8.1 °F 1017.8 in ENE 7.4 mph 7.4 mph 68 % 0.0 in
09:50 13.9 °F 8.1 °F 1017.8 in NE 9.5 mph 9.5 mph 68 % 0.0 in
09:55 14.0 °F 7.9 °F 1017.8 in NNE 7.4 mph 7.4 mph 67 % 0.0 in
10:00 14.0 °F 7.9 °F 1017.8 in NE 13.0 mph 13.0 mph 67 % 0.0 in
10:05 13.9 °F 7.9 °F 1017.8 in ENE 11.1 mph 11.1 mph 67 % 0.0 in
10:10 14.4 °F 8.3 °F 1017.8 in East 4.2 mph 5.0 mph 67 % 0.0 in
10:15 14.4 °F 8.1 °F 1017.8 in NNE 11.1 mph 11.1 mph 66 % 0.0 in
10:20 14.3 °F 8.1 °F 1017.8 in ENE 11.1 mph 11.1 mph 66 % 0.0 in
10:25 14.2 °F 7.9 °F 1017.8 in North 11.1 mph 11.1 mph 66 % 0.0 in
10:30 14.5 °F 8.2 °F 1017.8 in NNE 6.4 mph 6.4 mph 66 % 0.0 in
10:35 14.6 °F 8.1 °F 1017.8 in ENE 11.1 mph 11.1 mph 65 % 0.0 in
10:40 14.9 °F 8.6 °F 1017.8 in NNE 6.4 mph 6.4 mph 66 % 0.0 in
10:45 14.5 °F 8.0 °F 1017.8 in ENE 11.1 mph 11.1 mph 65 % 0.0 in
10:55 15.3 °F 8.8 °F 1017.8 in NE 5.6 mph 5.6 mph 65 % 0.0 in
11:00 15.6 °F 9.1 °F 1017.8 in NNW 5.6 mph 5.6 mph 65 % 0.0 in
11:05 15.8 °F 9.2 °F 1017.8 in East 5.6 mph 5.6 mph 65 % 0.0 in
11:10 15.8 °F 9.0 °F 1016.8 in North 9.3 mph 9.3 mph 64 % 0.0 in
11:15 15.9 °F 9.1 °F 1016.8 in ENE 3.7 mph 3.7 mph 64 % 0.0 in
11:20 15.9 °F 9.1 °F 1016.8 in NNE 7.4 mph 7.4 mph 64 % 0.0 in
11:25 15.9 °F 9.1 °F 1017.8 in WNW 7.4 mph 7.4 mph 64 % 0.0 in
11:30 16.0 °F 8.9 °F 1017.8 in ENE 6.4 mph 6.4 mph 63 % 0.0 in
11:35 15.9 °F 8.8 °F 1017.8 in ENE 9.3 mph 9.3 mph 63 % 0.0 in
11:40 15.7 °F 8.7 °F 1017.8 in ENE 9.3 mph 9.3 mph 63 % 0.0 in
11:45 15.9 °F 8.8 °F 1017.8 in NE 10.3 mph 10.3 mph 63 % 0.0 in
11:50 15.8 °F 8.8 °F 1017.8 in NE 9.5 mph 9.5 mph 63 % 0.0 in
11:55 15.8 °F 8.8 °F 1017.8 in ESE 12.2 mph 12.2 mph 63 % 0.0 in
12:00 15.8 °F 8.8 °F 1017.8 in North 11.1 mph 11.1 mph 63 % 0.0 in
12:05 15.9 °F 8.8 °F 1017.8 in ENE 11.1 mph 11.1 mph 63 % 0.0 in
12:10 16.4 °F 9.3 °F 1017.8 in ENE 8.7 mph 8.7 mph 63 % 0.0 in
12:15 16.7 °F 9.6 °F 1017.8 in NNE 5.6 mph 5.6 mph 63 % 0.0 in
12:20 16.7 °F 9.6 °F 1017.8 in NE 5.6 mph 5.6 mph 63 % 0.0 in
12:25 16.9 °F 9.6 °F 1017.8 in NE 5.0 mph 5.0 mph 62 % 0.0 in
12:30 16.9 °F 9.6 °F 1017.8 in ENE 9.3 mph 9.3 mph 62 % 0.0 in
12:35 16.8 °F 9.5 °F 1017.8 in ENE 9.3 mph 9.3 mph 62 % 0.0 in
12:40 16.6 °F 9.1 °F 1017.8 in NNW 11.1 mph 11.1 mph 61 % 0.0 in
12:45 16.5 °F 8.9 °F 1017.8 in NNE 16.7 mph 16.7 mph 61 % 0.0 in
12:50 16.8 °F 9.2 °F 1017.8 in NNE 10.3 mph 10.3 mph 61 % 0.0 in
12:55 16.5 °F 8.9 °F 1017.8 in North 13.0 mph 13.0 mph 61 % 0.0 in
13:00 16.7 °F 9.1 °F 1017.8 in East 14.8 mph 14.8 mph 61 % 0.0 in
13:05 16.7 °F 9.1 °F 1017.8 in NW 9.3 mph 9.7 mph 61 % 0.0 in
13:10 16.6 °F 9.1 °F 1017.8 in ENE 16.7 mph 16.7 mph 61 % 0.0 in
13:15 16.6 °F 8.8 °F 1017.8 in North 11.1 mph 11.1 mph 60 % 0.0 in
13:20 17.0 °F 9.2 °F 1017.8 in NNW 7.4 mph 7.4 mph 60 % 0.0 in
13:30 17.0 °F 8.9 °F 1016.8 in North 11.1 mph 11.1 mph 59 % 0.0 in
13:35 17.2 °F 9.4 °F 1016.8 in NNE 5.6 mph 5.6 mph 60 % 0.0 in
13:40 17.2 °F 9.4 °F 1016.8 in ENE 16.4 mph 16.4 mph 60 % 0.0 in
13:42 17.1 °F 9.0 °F 1016.8 in NE 16.7 mph 16.7 mph 59 % 0.0 in
13:47 17.2 °F 9.1 °F 1016.8 in ENE 7.4 mph 7.4 mph 59 % 0.0 in
13:52 17.4 °F 9.3 °F 1015.8 in NNE 7.9 mph 7.9 mph 59 % 0.0 in
13:57 17.4 °F 9.3 °F 1015.8 in NNE 7.4 mph 7.4 mph 59 % 0.0 in
14:02 17.5 °F 9.4 °F 1015.8 in NNE 7.4 mph 7.4 mph 59 % 0.0 in
14:07 17.6 °F 9.5 °F 1016.8 in NNE 7.4 mph 7.4 mph 59 % 0.0 in
14:12 17.5 °F 9.2 °F 1016.8 in ENE 13.0 mph 13.0 mph 58 % 0.0 in
14:17 17.6 °F 9.2 °F 1016.8 in ENE 9.3 mph 9.3 mph 58 % 0.0 in
14:22 17.7 °F 9.3 °F 1015.8 in NNE 9.3 mph 9.3 mph 58 % 0.0 in
14:27 17.7 °F 9.3 °F 1015.8 in NNE 9.3 mph 9.3 mph 58 % 0.0 in
14:32 17.9 °F 9.5 °F 1015.8 in NNE 5.6 mph 5.6 mph 58 % 0.0 in
14:37 18.0 °F 9.6 °F 1015.8 in ENE 9.3 mph 9.3 mph 58 % 0.0 in
14:42 18.0 °F 9.6 °F 1015.8 in NE 8.7 mph 8.7 mph 58 % 0.0 in
14:47 18.1 °F 9.7 °F 1015.8 in NNE 7.4 mph 7.4 mph 58 % 0.0 in
14:52 18.1 °F 9.4 °F 1015.8 in NNE 8.7 mph 8.7 mph 57 % 0.0 in
14:57 18.1 °F 9.4 °F 1015.8 in NE 11.1 mph 11.1 mph 57 % 0.0 in
15:02 18.0 °F 9.3 °F 1015.8 in North 7.4 mph 7.4 mph 57 % 0.0 in
15:07 18.1 °F 9.4 °F 1015.8 in NNE 7.4 mph 7.4 mph 57 % 0.0 in
15:12 18.1 °F 9.4 °F 1015.8 in West 9.3 mph 9.3 mph 57 % 0.0 in
15:17 18.2 °F 9.6 °F 1015.8 in North 9.3 mph 9.3 mph 57 % 0.0 in
15:22 18.2 °F 9.6 °F 1015.8 in NW 4.2 mph 4.2 mph 57 % 0.0 in
15:27 18.3 °F 9.6 °F 1015.8 in ENE 7.4 mph 7.4 mph 57 % 0.0 in
15:32 18.3 °F 9.6 °F 1015.8 in NNE 6.4 mph 6.4 mph 57 % 0.0 in
15:37 18.4 °F 9.7 °F 1015.8 in NNE 5.6 mph 5.6 mph 57 % 0.0 in
15:42 18.4 °F 9.7 °F 1015.8 in NNE 3.7 mph 3.7 mph 57 % 0.0 in
15:47 18.5 °F 9.8 °F 1015.8 in ESE 5.6 mph 5.6 mph 57 % 0.0 in
15:52 18.5 °F 9.8 °F 1015.8 in ENE 5.6 mph 5.6 mph 57 % 0.0 in
15:57 18.4 °F 9.7 °F 1015.8 in NE 6.9 mph 6.9 mph 57 % 0.0 in
16:02 18.4 °F 9.4 °F 1015.8 in North 5.6 mph 5.6 mph 56 % 0.0 in
16:07 18.4 °F 9.4 °F 1015.8 in NNE 5.6 mph 5.6 mph 56 % 0.0 in
16:12 18.5 °F 9.8 °F 1015.8 in NW 2.3 mph 2.3 mph 57 % 0.0 in
16:17 18.4 °F 9.4 °F 1015.8 in NE 7.4 mph 7.4 mph 56 % 0.0 in
16:22 18.4 °F 9.7 °F 1016.8 in NNE 3.7 mph 3.7 mph 57 % 0.0 in
16:27 18.4 °F 9.4 °F 1016.8 in ENE 4.7 mph 4.7 mph 56 % 0.0 in
16:32 18.3 °F 9.4 °F 1016.8 in ENE 5.6 mph 5.6 mph 56 % 0.0 in
16:37 18.2 °F 9.6 °F 1015.8 in NE 5.6 mph 5.6 mph 57 % 0.0 in
16:42 18.2 °F 9.6 °F 1015.8 in NNE 5.3 mph 5.3 mph 57 % 0.0 in
16:52 18.1 °F 9.4 °F 1016.8 in East 7.4 mph 7.4 mph 57 % 0.0 in
16:57 18.0 °F 9.6 °F 1016.8 in ENE 5.6 mph 5.6 mph 58 % 0.0 in
17:02 17.8 °F 9.7 °F 1016.8 in SE 9.3 mph 9.3 mph 59 % 0.0 in
17:07 17.6 °F 9.7 °F 1016.8 in ESE 7.9 mph 7.9 mph 60 % 0.0 in
17:12 17.6 °F 10.0 °F 1016.8 in SE 9.3 mph 9.3 mph 61 % 0.0 in
17:17 17.4 °F 9.8 °F 1016.8 in ESE 9.3 mph 9.3 mph 61 % 0.0 in
17:22 17.2 °F 9.8 °F 1016.8 in ESE 11.1 mph 11.1 mph 62 % 0.0 in
17:27 17.1 °F 9.8 °F 1016.8 in ESE 5.6 mph 5.6 mph 62 % 0.0 in
17:32 17.1 °F 10.0 °F 1016.8 in ESE 7.4 mph 7.4 mph 63 % 0.0 in
17:42 17.0 °F 9.9 °F 1017.8 in ESE 7.4 mph 7.4 mph 63 % 0.0 in
17:47 17.0 °F 9.9 °F 1017.8 in ENE 3.7 mph 3.7 mph 63 % 0.0 in
17:52 16.9 °F 10.1 °F 1017.8 in East 6.1 mph 6.1 mph 64 % 0.0 in
17:57 16.9 °F 10.1 °F 1017.8 in ESE 4.7 mph 4.7 mph 64 % 0.0 in
18:02 16.9 °F 10.1 °F 1017.8 in ESE 5.6 mph 5.6 mph 64 % 0.0 in
18:07 16.8 °F 9.9 °F 1017.8 in East 5.6 mph 5.6 mph 64 % 0.0 in
18:12 16.8 °F 9.9 °F 1017.8 in ESE 7.4 mph 7.4 mph 64 % 0.0 in
18:15 13.7 °F 9.6 °F 1019.9 in Calm   1.6 mph 76 % 0.0 in
18:17 16.8 °F 9.9 °F 1017.8 in ENE 3.7 mph 3.7 mph 64 % 0.0 in
18:22 16.7 °F 9.8 °F 1017.8 in ENE 5.6 mph 5.6 mph 64 % 0.0 in
18:25 13.6 °F 9.7 °F 1019.9 in Calm   3.2 mph 77 % 0.0 in
18:27 16.7 °F 9.8 °F 1017.8 in ENE 4.2 mph 4.2 mph 64 % 0.0 in
18:32 16.7 °F 9.8 °F 1017.8 in ENE 5.6 mph 5.6 mph 64 % 0.0 in
18:35 13.7 °F 9.7 °F 1019.9 in NNE 3.2 mph 3.2 mph 77 % 0.0 in
18:37 16.6 °F 9.8 °F 1017.8 in East 4.2 mph 4.2 mph 64 % 0.0 in
18:42 16.6 °F 9.8 °F 1017.8 in ENE 5.6 mph 5.6 mph 64 % 0.0 in
18:45 13.7 °F 9.7 °F 1019.9 in NNE 3.2 mph 4.8 mph 77 % 0.0 in
18:47 16.6 °F 10.0 °F 1017.8 in NE 3.7 mph 3.7 mph 65 % 0.0 in
18:52 16.6 °F 10.0 °F 1017.8 in East 7.4 mph 7.4 mph 65 % 0.0 in
18:55 13.5 °F 9.2 °F 1019.9 in NE 1.6 mph 4.8 mph 75 % 0.0 in
18:57 16.6 °F 10.0 °F 1017.8 in ENE 3.7 mph 3.7 mph 65 % 0.0 in
19:02 16.6 °F 10.0 °F 1017.8 in ENE 1.9 mph 1.9 mph 65 % 0.0 in
19:05 13.4 °F 9.1 °F 1019.9 in Calm   3.2 mph 75 % 0.0 in
19:07 16.6 °F 10.0 °F 1018.8 in ENE 1.9 mph 1.9 mph 65 % 0.0 in
19:12 16.6 °F 10.0 °F 1018.8 in Calm     65 % 0.0 in
19:15 13.4 °F 9.1 °F 1019.9 in NNE 1.6 mph 4.8 mph 75 % 0.0 in
19:17 16.5 °F 9.9 °F 1018.8 in ESE 1.9 mph   65 % 0.0 in
19:22 16.5 °F 10.1 °F 1018.8 in Calm     66 % 0.0 in
19:25 13.3 °F 8.9 °F 1019.9 in NNE 1.6 mph 3.2 mph 75 % 0.0 in
19:27 16.4 °F 10.1 °F 1018.8 in Calm     66 % 0.0 in
19:32 16.3 °F 9.9 °F 1018.8 in Calm     66 % 0.0 in
19:35 13.3 °F 8.9 °F 1019.9 in Calm   3.2 mph 75 % 0.0 in
19:37 16.2 °F 9.8 °F 1018.8 in Calm     66 % 0.0 in
19:42 16.1 °F 9.7 °F 1018.8 in Calm     66 % 0.0 in
19:45 13.2 °F 8.9 °F 1019.9 in NE 1.6 mph 3.2 mph 75 % 0.0 in
19:47 16.1 °F 9.9 °F 1018.8 in Calm     67 % 0.0 in
19:52 16.0 °F 9.9 °F 1018.8 in Calm     67 % 0.0 in
19:55 13.2 °F 8.9 °F 1019.9 in Calm   3.2 mph 75 % 0.0 in
19:57 16.0 °F 9.9 °F 1018.8 in Calm     67 % 0.0 in
20:02 15.9 °F 9.8 °F 1018.8 in Calm     67 % 0.0 in
20:05 13.3 °F 8.9 °F 1019.9 in West 1.6 mph 1.6 mph 75 % 0.0 in
20:07 15.8 °F 9.9 °F 1018.8 in Calm     68 % 0.0 in
20:12 15.7 °F 9.8 °F 1018.8 in South 1.4 mph   68 % 0.0 in
20:15 13.3 °F 8.9 °F 1019.9 in Calm   1.6 mph 75 % 0.0 in
20:17 15.6 °F 9.7 °F 1018.8 in Calm     68 % 0.0 in
20:22 15.5 °F 9.4 °F 1018.8 in WNW 3.5 mph 3.5 mph 67 % 0.0 in
20:25 13.4 °F 9.3 °F 1019.9 in Calm   3.2 mph 76 % 0.0 in
20:27 15.5 °F 9.6 °F 1018.8 in WNW 1.9 mph 1.9 mph 68 % 0.0 in
20:32 15.4 °F 9.5 °F 1018.8 in Calm     68 % 0.0 in
20:35 13.4 °F 9.4 °F 1019.9 in Calm   3.2 mph 77 % 0.0 in
20:37 15.4 °F 9.5 °F 1019.9 in WNW 2.3 mph 2.3 mph 68 % 0.0 in
20:42 15.2 °F 9.6 °F 1019.9 in WNW 2.6 mph 2.6 mph 69 % 0.0 in
20:45 13.4 °F 9.7 °F 1019.9 in Calm     78 % 0.0 in
20:47 15.2 °F 9.6 °F 1019.9 in West 1.9 mph 1.9 mph 69 % 0.0 in
20:52 15.2 °F 9.6 °F 1019.9 in West 1.9 mph   69 % 0.0 in
20:55 13.3 °F 9.6 °F 1019.9 in South 1.6 mph 3.2 mph 78 % 0.0 in
20:57 15.1 °F 9.4 °F 1019.9 in Calm     69 % 0.0 in
21:02 15.0 °F 9.3 °F 1019.9 in Calm     69 % 0.0 in
21:05 13.3 °F 9.6 °F 1019.9 in Calm   1.6 mph 78 % 0.0 in
21:07 15.1 °F 9.4 °F 1019.9 in WNW 2.3 mph 2.3 mph 69 % 0.0 in
21:12 15.1 °F 9.4 °F 1019.9 in Calm     69 % 0.0 in
21:15 13.2 °F 9.4 °F 1019.9 in Calm   1.6 mph 78 % 0.0 in
21:17 15.1 °F 9.4 °F 1019.9 in WNW 2.3 mph   69 % 0.0 in
21:22 15.0 °F 9.3 °F 1019.9 in WNW 2.3 mph   69 % 0.0 in
21:25 13.1 °F 9.3 °F 1019.9 in Calm   1.6 mph 78 % 0.0 in
21:27 15.0 °F 9.3 °F 1019.9 in NW 1.9 mph   69 % 0.0 in
21:32 15.0 °F 9.3 °F 1019.9 in NW 2.3 mph   69 % 0.0 in
21:35 13.1 °F 9.3 °F 1019.9 in Calm   3.2 mph 78 % 0.0 in
21:37 15.0 °F 9.6 °F 1019.9 in NW 1.4 mph   70 % 0.0 in
21:42 15.0 °F 9.6 °F 1019.9 in NW 1.4 mph   70 % 0.0 in
21:45 13.1 °F 9.3 °F 1019.9 in ENE 1.6 mph 3.2 mph 78 % 0.0 in
21:47 15.1 °F 9.7 °F 1019.9 in NW 1.9 mph 1.9 mph 70 % 0.0 in
21:52 14.9 °F 9.7 °F 1018.8 in Calm     71 % 0.0 in
21:55 13.1 °F 9.3 °F 1019.9 in Calm   1.6 mph 78 % 0.0 in
21:57 14.8 °F 9.6 °F 1018.8 in ENE 2.3 mph 2.3 mph 71 % 0.0 in
22:02 14.8 °F 9.6 °F 1018.8 in ENE 1.9 mph   71 % 0.0 in
22:05 13.1 °F 9.6 °F 1019.9 in Calm   1.6 mph 79 % 0.0 in
22:07 14.9 °F 9.9 °F 1019.9 in Calm     72 % 0.0 in
22:12 14.8 °F 9.8 °F 1019.9 in ENE 3.7 mph 3.7 mph 72 % 0.0 in
22:15 13.0 °F 9.3 °F 1019.9 in Calm   1.6 mph 78 % 0.0 in
22:17 14.7 °F 9.7 °F 1019.9 in ENE 3.7 mph 3.7 mph 72 % 0.0 in
22:22 14.7 °F 9.7 °F 1019.9 in ENE 1.9 mph   72 % 0.0 in
22:25 13.0 °F 9.3 °F 1020.9 in Calm   3.2 mph 78 % 0.0 in
22:27 14.6 °F 9.8 °F 1019.9 in ENE 1.9 mph   73 % 0.0 in
22:32 14.7 °F 9.9 °F 1019.9 in ENE 2.3 mph   73 % 0.0 in
22:35 13.0 °F 9.3 °F 1020.9 in Calm     78 % 0.0 in
22:37 14.6 °F 9.8 °F 1019.9 in ENE 2.3 mph 2.3 mph 73 % 0.0 in
22:42 14.5 °F 9.7 °F 1019.9 in Calm     73 % 0.0 in
22:45 13.1 °F 9.3 °F 1020.9 in NNE 1.6 mph 3.2 mph 78 % 0.0 in
22:47 14.4 °F 9.6 °F 1019.9 in NE 2.3 mph 2.3 mph 73 % 0.0 in
22:52 14.3 °F 9.7 °F 1019.9 in NE 1.9 mph   74 % 0.0 in
22:55 13.0 °F 9.3 °F 1020.9 in Calm   3.2 mph 78 % 0.0 in
23:05 13.0 °F 9.3 °F 1020.9 in Calm     78 % 0.0 in
23:07 14.2 °F 9.6 °F 1019.9 in NE 1.9 mph   74 % 0.0 in
23:12 14.0 °F 9.4 °F 1019.9 in Calm     74 % 0.0 in
23:15 13.0 °F 8.9 °F 1021.9 in West 3.2 mph 3.2 mph 76 % 0.0 in
23:17 14.0 °F 9.4 °F 1019.9 in Calm     74 % 0.0 in
23:22 14.0 °F 9.4 °F 1019.9 in Calm     74 % 0.0 in
23:25 13.2 °F 8.7 °F 1020.9 in WSW 4.8 mph 4.8 mph 74 % 0.0 in
23:27 13.9 °F 9.6 °F 1019.9 in Calm     75 % 0.0 in
23:32 13.9 °F 9.6 °F 1019.9 in ENE 3.7 mph 3.7 mph 75 % 0.0 in
23:35 13.3 °F 8.6 °F 1020.9 in WSW 1.6 mph 6.4 mph 73 % 0.0 in
23:37 13.9 °F 9.6 °F 1019.9 in ENE 1.9 mph 1.9 mph 75 % 0.0 in
23:42 13.9 °F 9.6 °F 1019.9 in Calm     75 % 0.0 in
23:45 13.2 °F 8.1 °F 1021.9 in WSW 1.6 mph 1.6 mph 71 % 0.0 in
23:47 13.9 °F 9.6 °F 1019.9 in ENE 1.9 mph   75 % 0.0 in
23:52 13.9 °F 9.6 °F 1019.9 in Calm     75 % 0.0 in
23:55 13.2 °F 7.8 °F 1021.9 in NW 4.8 mph 6.4 mph 70 % 0.0 in
23:57 13.8 °F 9.4 °F 1019.9 in Calm     75 % 0.0 in
Meteo Sesrovires
Elogis d' Weather Underground - 1.5 mb

Guio original per  Jim McMurry - jmcmurry@mwt.net Adaptat per a la plantilla per  Wim van der Kuil - Leuven-Template.eu

Trobareu la nostra informacio del temps tambe a:

Weather Underground

AWEKAS